createdAt,value
2023-04-05T00:01:20.214Z,98787.97
2023-04-05T00:03:48.759Z,98792.50
2023-04-05T00:06:17.337Z,98786.31
2023-04-05T00:08:50.110Z,98789.00
2023-04-05T00:11:20.098Z,98780.09
2023-04-05T00:13:48.442Z,98780.94
2023-04-05T00:16:17.152Z,98779.25
2023-04-05T00:18:49.928Z,98771.22
2023-04-05T00:21:21.877Z,98769.19
2023-04-05T00:23:51.560Z,98766.50
2023-04-05T00:26:21.462Z,98769.03
2023-04-05T00:28:50.110Z,98764.50
2023-04-05T00:31:18.629Z,98760.97
2023-04-05T00:33:47.091Z,98766.34
2023-04-05T00:36:17.414Z,98751.06
2023-04-05T00:38:46.416Z,98755.59
2023-04-05T00:41:14.985Z,98748.38
2023-04-05T00:43:44.804Z,98748.38
2023-04-05T00:46:13.323Z,98756.59
2023-04-05T00:48:42.712Z,98752.91
2023-04-05T00:51:12.097Z,98754.78
2023-04-05T00:53:40.906Z,98747.53
2023-04-05T00:56:10.389Z,98744.88
2023-04-05T00:58:41.489Z,98751.06
2023-04-05T01:01:16.796Z,98754.78
2023-04-05T01:03:47.385Z,98757.44
2023-04-05T01:06:27.648Z,98746.72
2023-04-05T01:09:01.836Z,98742.31
2023-04-05T01:11:31.026Z,98743.34
2023-04-05T01:14:00.813Z,98740.66
2023-04-05T01:16:30.697Z,98739.63
2023-04-05T01:18:59.319Z,98735.28
2023-04-05T01:21:48.758Z,98732.59
2023-04-05T01:24:23.209Z,98733.44
2023-04-05T01:27:02.367Z,98735.28
2023-04-05T01:29:49.100Z,98729.09
2023-04-05T01:32:26.310Z,98732.59
2023-04-05T01:35:00.849Z,98731.78
2023-04-05T01:37:32.046Z,98734.44
2023-04-05T01:40:00.621Z,98728.25
2023-04-05T01:42:29.266Z,98736.31
2023-04-05T01:44:59.436Z,98724.69
2023-04-05T01:47:27.857Z,98728.25
2023-04-05T01:49:56.307Z,98727.38
2023-04-05T01:52:24.598Z,98715.81
2023-04-05T01:54:53.046Z,98713.97
2023-04-05T01:57:21.377Z,98718.50
2023-04-05T01:59:49.807Z,98705.91
2023-04-05T02:02:19.458Z,98713.13
2023-04-05T02:04:47.831Z,98715.81
2023-04-05T02:07:16.154Z,98714.13
2023-04-05T02:09:44.592Z,98712.28
2023-04-05T02:12:12.966Z,98714.97
2023-04-05T02:14:41.306Z,98714.13
2023-04-05T02:17:09.642Z,98714.13
2023-04-05T02:19:41.887Z,98706.09
2023-04-05T02:22:10.362Z,98703.41
2023-04-05T02:24:38.722Z,98706.09
2023-04-05T02:27:07.510Z,98699.88
2023-04-05T02:29:36.104Z,98695.34
2023-04-05T02:32:04.502Z,98695.34
2023-04-05T02:34:33.679Z,98690.97
2023-04-05T02:37:03.382Z,98699.00
2023-04-05T02:39:31.967Z,98693.50
2023-04-05T02:42:00.405Z,98692.66
2023-04-05T02:44:29.114Z,98696.31
2023-04-05T02:46:57.704Z,98690.97
2023-04-05T02:49:26.085Z,98697.19
2023-04-05T02:51:55.873Z,98688.28
2023-04-05T02:54:26.287Z,98687.44
2023-04-05T02:56:57.834Z,98687.44
2023-04-05T02:59:26.406Z,98688.47
2023-04-05T03:01:54.821Z,98691.97
2023-04-05T03:04:26.990Z,98692.81
2023-04-05T03:06:57.372Z,98690.97
2023-04-05T03:09:33.804Z,98682.25
2023-04-05T03:12:03.853Z,98680.41
2023-04-05T03:14:32.256Z,98673.19
2023-04-05T03:17:01.345Z,98680.41
2023-04-05T03:19:29.726Z,98679.56
2023-04-05T03:21:58.425Z,98689.44
2023-04-05T03:24:28.203Z,98685.91
2023-04-05T03:26:56.681Z,98684.94
2023-04-05T03:29:25.010Z,98684.06
2023-04-05T03:31:53.571Z,98676.00
2023-04-05T03:34:23.078Z,98676.88
2023-04-05T03:36:51.520Z,98688.59
2023-04-05T03:39:19.852Z,98686.75
2023-04-05T03:41:49.709Z,98686.94
2023-04-05T03:44:18.092Z,98682.41
2023-04-05T03:46:46.460Z,98686.94
2023-04-05T03:49:16.387Z,98684.25
2023-04-05T03:51:44.786Z,98687.78
2023-04-05T03:54:13.189Z,98686.94
2023-04-05T03:56:41.520Z,98687.78
2023-04-05T03:59:11.387Z,98692.31
2023-04-05T04:01:39.820Z,98679.88
2023-04-05T04:04:08.288Z,98682.41
2023-04-05T04:06:37.985Z,98679.03
2023-04-05T04:09:06.942Z,98675.38
2023-04-05T04:11:35.676Z,98678.03
2023-04-05T04:14:04.034Z,98684.41
2023-04-05T04:16:33.915Z,98684.41
2023-04-05T04:19:02.234Z,98674.69
2023-04-05T04:21:32.720Z,98674.69
2023-04-05T04:24:01.324Z,98671.16
2023-04-05T04:26:29.940Z,98677.38
2023-04-05T04:28:58.323Z,98676.53
2023-04-05T04:31:27.688Z,98680.06
2023-04-05T04:33:57.935Z,98672.84
2023-04-05T04:36:35.199Z,98664.78
2023-04-05T04:39:06.169Z,98668.47
2023-04-05T04:41:36.074Z,98667.66
2023-04-05T04:44:04.564Z,98664.78
2023-04-05T04:46:35.020Z,98672.00
2023-04-05T04:49:06.219Z,98676.53
2023-04-05T04:51:34.822Z,98679.22
2023-04-05T04:54:03.149Z,98682.88
2023-04-05T04:56:31.578Z,98685.56
2023-04-05T04:58:59.921Z,98687.28
2023-04-05T05:01:28.583Z,98680.19
2023-04-05T05:03:57.277Z,98683.06
2023-04-05T05:06:27.155Z,98680.53
2023-04-05T05:08:56.564Z,98683.75
2023-04-05T05:11:25.035Z,98685.91
2023-04-05T05:13:53.585Z,98686.09
2023-04-05T05:16:23.684Z,98698.34
2023-04-05T05:18:52.529Z,98693.13
2023-04-05T05:21:20.945Z,98701.03
2023-04-05T05:23:51.129Z,98699.34
2023-04-05T05:26:19.554Z,98692.81
2023-04-05T05:28:49.721Z,98699.00
2023-04-05T05:31:19.585Z,98694.50
2023-04-05T05:33:50.077Z,98689.78
2023-04-05T05:36:20.108Z,98693.16
2023-04-05T05:38:50.327Z,98691.50
2023-04-05T05:41:18.634Z,98694.19
2023-04-05T05:43:47.096Z,98697.50
2023-04-05T05:46:16.096Z,98696.19
2023-04-05T05:48:44.533Z,98706.09
2023-04-05T05:51:13.038Z,98700.03
2023-04-05T05:53:43.103Z,98696.66
2023-04-05T05:56:13.051Z,98702.88
2023-04-05T05:58:41.906Z,98701.03
2023-04-05T06:01:12.222Z,98700.88
2023-04-05T06:03:40.837Z,98703.72
2023-04-05T06:06:11.402Z,98703.03
2023-04-05T06:08:39.813Z,98710.25
2023-04-05T06:11:18.945Z,98707.03
2023-04-05T06:13:47.421Z,98704.84
2023-04-05T06:16:15.833Z,98698.47
2023-04-05T06:18:44.658Z,98698.81
2023-04-05T06:21:13.003Z,98691.94
2023-04-05T06:23:42.212Z,98699.84
2023-04-05T06:26:10.747Z,98690.59
2023-04-05T06:28:40.539Z,98697.00
2023-04-05T06:31:10.363Z,98694.66
2023-04-05T06:33:39.877Z,98699.00
2023-04-05T06:36:09.004Z,98697.34
2023-04-05T06:38:37.770Z,98702.72
2023-04-05T06:41:06.965Z,98701.03
2023-04-05T06:43:35.546Z,98705.53
2023-04-05T06:46:08.835Z,98693.81
2023-04-05T06:48:37.314Z,98695.69
2023-04-05T06:51:06.094Z,98697.19
2023-04-05T06:53:34.584Z,98708.59
2023-04-05T06:56:03.164Z,98709.44
2023-04-05T06:58:31.726Z,98701.41
2023-04-05T07:01:02.102Z,98702.03
2023-04-05T07:03:32.670Z,98706.44
2023-04-05T07:06:01.440Z,98705.41
2023-04-05T07:08:31.943Z,98702.03
2023-04-05T07:11:00.679Z,98711.81
2023-04-05T07:13:29.306Z,98714.50
2023-04-05T07:16:01.683Z,98709.94
2023-04-05T07:18:31.573Z,98705.75
2023-04-05T07:21:02.009Z,98701.72
2023-04-05T07:23:31.053Z,98712.47
2023-04-05T07:26:04.566Z,98707.94
2023-04-05T07:28:36.020Z,98710.47
2023-04-05T07:31:05.015Z,98713.13
2023-04-05T07:33:35.314Z,98710.47
2023-04-05T07:36:04.693Z,98705.09
2023-04-05T07:38:33.569Z,98709.47
2023-04-05T07:41:02.137Z,98707.44
2023-04-05T07:43:30.870Z,98710.13
2023-04-05T07:46:03.576Z,98706.78
2023-04-05T07:48:32.221Z,98703.09
2023-04-05T07:51:07.594Z,98710.13
2023-04-05T07:53:36.315Z,98694.88
2023-04-05T07:56:06.227Z,98690.34
2023-04-05T07:58:35.439Z,98698.22
2023-04-05T08:01:04.860Z,98700.06
2023-04-05T08:03:35.306Z,98689.16
2023-04-05T08:06:13.631Z,98700.06
2023-04-05T08:08:42.488Z,98705.94
2023-04-05T08:11:10.954Z,98698.75
2023-04-05T08:13:41.881Z,98691.66
2023-04-05T08:16:11.172Z,98705.28
2023-04-05T08:18:39.666Z,98693.19
2023-04-05T08:21:08.152Z,98694.03
2023-04-05T08:23:38.497Z,98679.75
2023-04-05T08:26:08.026Z,98687.66
2023-04-05T08:28:36.474Z,98684.16
2023-04-05T08:31:04.954Z,98683.28
2023-04-05T08:33:33.573Z,98685.97
2023-04-05T08:36:06.445Z,98684.97
2023-04-05T08:38:35.119Z,98678.59
2023-04-05T08:41:15.976Z,98674.91
2023-04-05T08:43:54.406Z,98680.28
2023-04-05T08:46:23.086Z,98675.75
2023-04-05T08:48:51.680Z,98681.97
2023-04-05T08:51:21.798Z,98678.44
2023-04-05T08:53:50.720Z,98682.09
2023-04-05T08:56:22.351Z,98675.75
2023-04-05T08:58:56.840Z,98673.72
2023-04-05T09:01:25.977Z,98668.53
2023-04-05T09:03:55.436Z,98681.13
2023-04-05T09:06:23.939Z,98674.91
2023-04-05T09:08:52.623Z,98677.59
2023-04-05T09:11:22.883Z,98677.59
2023-04-05T09:13:51.756Z,98668.34
2023-04-05T09:16:20.605Z,98673.72
2023-04-05T09:18:49.810Z,98670.19
2023-04-05T09:21:19.522Z,98679.94
2023-04-05T09:23:56.006Z,98681.97
2023-04-05T09:26:27.472Z,98674.91
2023-04-05T09:28:56.093Z,98680.28
2023-04-05T09:31:34.993Z,98684.66
2023-04-05T09:34:04.883Z,98676.59
2023-04-05T09:36:35.859Z,98681.97
2023-04-05T09:39:08.320Z,98673.72
2023-04-05T09:41:39.459Z,98676.41
2023-04-05T09:44:08.167Z,98673.56
2023-04-05T09:46:38.666Z,98676.25
2023-04-05T09:49:10.262Z,98662.66
2023-04-05T09:51:40.095Z,98664.66
2023-04-05T09:54:09.548Z,98657.44
2023-04-05T09:56:41.021Z,98667.16
2023-04-05T09:59:11.780Z,98660.97
2023-04-05T10:01:41.769Z,98664.47
2023-04-05T10:04:10.620Z,98657.09
2023-04-05T10:06:40.643Z,98653.75
2023-04-05T10:09:10.273Z,98648.22
2023-04-05T10:11:40.706Z,98657.94
2023-04-05T10:14:10.007Z,98657.09
2023-04-05T10:16:40.373Z,98654.41
2023-04-05T10:19:12.909Z,98649.06
2023-04-05T10:21:43.165Z,98646.56
2023-04-05T10:24:18.647Z,98643.69
2023-04-05T10:26:57.553Z,98648.22
2023-04-05T10:29:34.053Z,98642.84
2023-04-05T10:32:11.424Z,98641.19
2023-04-05T10:34:45.313Z,98637.47
2023-04-05T10:37:17.973Z,98643.84
2023-04-05T10:39:47.792Z,98642.00
2023-04-05T10:42:22.580Z,98635.81
2023-04-05T10:44:55.847Z,98633.94
2023-04-05T10:47:25.373Z,98627.56
2023-04-05T10:49:55.732Z,98626.72
2023-04-05T10:52:24.588Z,98627.75
2023-04-05T10:54:53.775Z,98628.72
2023-04-05T10:57:24.009Z,98630.44
2023-04-05T10:59:53.970Z,98635.63
2023-04-05T11:02:22.776Z,98625.91
2023-04-05T11:04:57.369Z,98630.44
2023-04-05T11:07:26.578Z,98625.91
2023-04-05T11:09:58.836Z,98613.44
2023-04-05T11:13:09.037Z,98619.69
2023-04-05T11:15:37.907Z,98616.13
2023-04-05T11:18:09.249Z,98620.53
2023-04-05T11:20:45.763Z,98621.34
2023-04-05T11:23:15.721Z,98631.25
2023-04-05T11:25:49.512Z,98605.09
2023-04-05T11:28:27.213Z,98615.81
2023-04-05T11:30:58.908Z,98618.81
2023-04-05T11:34:00.544Z,98624.38
2023-04-05T11:36:41.951Z,98627.91
2023-04-05T11:39:29.392Z,98620.69
2023-04-05T11:42:05.058Z,98614.31
2023-04-05T11:44:44.491Z,98615.16
2023-04-05T11:47:13.623Z,98617.66
2023-04-05T11:49:42.683Z,98618.81
2023-04-05T11:52:16.611Z,98614.47
2023-04-05T11:57:17.562Z,98603.72
2023-04-05T11:59:47.558Z,98607.25
2023-04-05T12:02:16.734Z,98602.06
2023-04-05T12:04:45.265Z,98602.91
2023-04-05T12:07:18.218Z,98609.94
2023-04-05T12:10:04.696Z,98602.69
2023-04-05T12:12:38.455Z,98611.78
2023-04-05T12:15:14.745Z,98601.88
2023-04-05T12:17:50.299Z,98608.06
2023-04-05T12:20:20.637Z,98601.88
2023-04-05T12:22:50.041Z,98601.03
2023-04-05T12:25:19.343Z,98605.09
2023-04-05T12:27:48.389Z,98602.69
2023-04-05T12:30:19.596Z,98596.00
2023-04-05T12:32:49.702Z,98595.81
2023-04-05T12:35:19.708Z,98594.34
2023-04-05T12:37:48.479Z,98607.78
2023-04-05T12:40:22.528Z,98591.31
2023-04-05T12:42:51.338Z,98594.00
2023-04-05T12:45:21.291Z,98591.13
2023-04-05T12:47:57.746Z,98582.22
2023-04-05T12:50:28.950Z,98582.91
2023-04-05T12:52:59.225Z,98582.09
2023-04-05T12:55:28.723Z,98582.09
2023-04-05T12:57:59.673Z,98571.34
2023-04-05T13:00:31.241Z,98580.03
2023-04-05T13:03:00.945Z,98588.44
2023-04-05T13:05:30.965Z,98591.97
2023-04-05T13:07:59.678Z,98588.44
2023-04-05T13:10:28.317Z,98591.97
2023-04-05T13:12:57.136Z,98589.28
2023-04-05T13:15:25.680Z,98591.97
2023-04-05T13:17:56.034Z,98586.59
2023-04-05T13:20:24.837Z,98589.28
2023-04-05T13:22:53.542Z,98585.75
2023-04-05T13:25:23.005Z,98575.84
2023-04-05T13:27:51.515Z,98583.06
2023-04-05T13:30:20.102Z,98572.31
2023-04-05T13:32:48.944Z,98582.09
2023-04-05T13:35:19.191Z,98567.78
2023-04-05T13:37:49.724Z,98579.56
2023-04-05T13:40:18.795Z,98579.56
2023-04-05T13:42:48.844Z,98578.72
2023-04-05T13:45:17.430Z,98583.25
2023-04-05T13:47:46.294Z,98583.25
2023-04-05T13:50:15.055Z,98577.88
2023-04-05T13:52:45.178Z,98577.69
2023-04-05T13:55:13.734Z,98580.38
2023-04-05T13:57:42.321Z,98570.66
2023-04-05T14:00:12.845Z,98575.84
2023-04-05T14:02:41.786Z,98574.19
2023-04-05T14:05:11.225Z,98579.56
2023-04-05T14:07:40.210Z,98578.53
2023-04-05T14:10:12.756Z,98580.22
2023-04-05T14:12:41.256Z,98576.72
2023-04-05T14:15:11.226Z,98580.38
2023-04-05T14:17:42.905Z,98584.09
2023-04-05T14:20:12.634Z,98581.22
2023-04-05T14:22:41.311Z,98576.03
2023-04-05T14:25:11.591Z,98578.53
2023-04-05T14:27:42.581Z,98572.16
2023-04-05T14:30:12.661Z,98579.22
2023-04-05T14:32:41.361Z,98578.38
2023-04-05T14:35:11.394Z,98579.22
2023-04-05T14:37:40.005Z,98575.69
2023-04-05T14:40:11.532Z,98584.25
2023-04-05T14:42:48.494Z,98577.34
2023-04-05T14:45:19.179Z,98584.59
2023-04-05T14:47:47.790Z,98578.22
2023-04-05T14:50:16.653Z,98588.09
2023-04-05T14:52:45.529Z,98588.09
2023-04-05T14:55:16.686Z,98587.94
2023-04-05T14:57:45.804Z,98583.59
2023-04-05T15:00:15.937Z,98579.22
2023-04-05T15:02:44.688Z,98579.88
2023-04-05T15:05:13.827Z,98581.56
2023-04-05T15:07:42.452Z,98578.88
2023-04-05T15:10:11.897Z,98577.19
2023-04-05T15:12:42.217Z,98574.19
2023-04-05T15:15:11.661Z,98574.69
2023-04-05T15:20:09.723Z,98585.59
2023-04-05T15:22:41.008Z,98579.06
2023-04-05T15:25:11.357Z,98576.38
2023-04-05T15:27:41.408Z,98571.66
2023-04-05T15:30:11.644Z,98573.69
2023-04-05T15:32:40.222Z,98568.31
2023-04-05T15:35:09.932Z,98570.16
2023-04-05T15:37:39.304Z,98577.19
2023-04-05T15:40:10.056Z,98570.47
2023-04-05T15:42:38.650Z,98573.00
2023-04-05T15:45:10.574Z,98574.66
2023-04-05T15:47:39.759Z,98571.00
2023-04-05T15:50:09.203Z,98578.03
2023-04-05T15:52:37.868Z,98578.88
2023-04-05T15:55:07.482Z,98572.66
2023-04-05T15:57:36.101Z,98567.28
2023-04-05T16:00:04.911Z,98568.97
2023-04-05T16:02:34.913Z,98576.03
2023-04-05T16:05:03.660Z,98577.03
2023-04-05T16:07:33.208Z,98575.19
2023-04-05T16:10:01.802Z,98583.06
2023-04-05T16:12:30.405Z,98569.81
2023-04-05T16:14:58.930Z,98578.88
2023-04-05T16:17:28.015Z,98575.34
2023-04-05T16:19:58.179Z,98575.53
2023-04-05T16:22:27.341Z,98584.59
2023-04-05T16:24:56.035Z,98586.28
2023-04-05T16:27:24.731Z,98588.97
2023-04-05T16:29:54.076Z,98583.41
2023-04-05T16:32:23.067Z,98586.28
2023-04-05T16:34:51.867Z,98588.97
2023-04-05T16:37:22.033Z,98592.63
2023-04-05T16:39:50.800Z,98590.47
2023-04-05T16:42:19.348Z,98598.53
2023-04-05T16:44:47.872Z,98599.38
2023-04-05T16:47:16.543Z,98592.28
2023-04-05T16:49:45.235Z,98594.97
2023-04-05T16:52:13.849Z,98594.97
2023-04-05T16:54:43.856Z,98605.72
2023-04-05T16:57:12.543Z,98603.03
2023-04-05T16:59:41.421Z,98600.19
2023-04-05T17:02:10.120Z,98609.09
2023-04-05T17:04:38.780Z,98604.56
2023-04-05T17:07:08.038Z,98603.72
2023-04-05T17:09:36.666Z,98609.09
2023-04-05T17:12:07.404Z,98607.75
2023-04-05T17:14:35.966Z,98609.94
2023-04-05T17:17:04.627Z,98617.34
2023-04-05T17:19:33.710Z,98615.50
2023-04-05T17:22:02.762Z,98618.16
2023-04-05T17:24:36.169Z,98624.53
2023-04-05T17:27:06.402Z,98621.00
2023-04-05T17:29:35.115Z,98611.09
2023-04-05T17:32:03.830Z,98619.16
2023-04-05T17:34:32.463Z,98629.91
2023-04-05T17:37:01.658Z,98630.94
2023-04-05T17:39:30.424Z,98632.59
2023-04-05T17:41:59.277Z,98630.78
2023-04-05T17:44:30.840Z,98631.75
2023-04-05T17:47:08.698Z,98634.28
2023-04-05T17:49:38.495Z,98642.34
2023-04-05T17:52:08.795Z,98653.09
2023-04-05T17:54:38.172Z,98645.38
2023-04-05T17:57:07.440Z,98654.41
2023-04-05T17:59:37.894Z,98652.56
2023-04-05T18:02:07.276Z,98657.28
2023-04-05T18:04:36.880Z,98658.81
2023-04-05T18:07:07.281Z,98660.63
2023-04-05T18:09:37.668Z,98658.97
2023-04-05T18:12:07.303Z,98649.06
2023-04-05T18:14:38.012Z,98656.13
2023-04-05T18:17:07.327Z,98654.41
2023-04-05T18:19:36.054Z,98650.91
2023-04-05T18:22:04.856Z,98655.25
2023-04-05T18:24:33.817Z,98663.50
2023-04-05T18:27:02.735Z,98669.72
2023-04-05T18:29:33.055Z,98664.19
2023-04-05T18:32:03.371Z,98662.47
2023-04-05T18:34:32.175Z,98657.09
2023-04-05T18:37:01.194Z,98661.50
2023-04-05T18:39:29.936Z,98668.53
2023-04-05T18:41:58.974Z,98667.50
2023-04-05T18:44:27.643Z,98670.38
2023-04-05T18:46:57.698Z,98667.69
2023-04-05T18:49:28.000Z,98673.91
2023-04-05T18:51:56.770Z,98667.69
2023-04-05T18:54:25.758Z,98670.53
2023-04-05T18:56:54.492Z,98668.69
2023-04-05T18:59:25.184Z,98665.84
2023-04-05T19:01:54.595Z,98665.84
2023-04-05T19:04:23.275Z,98673.06
2023-04-05T19:06:53.599Z,98671.22
2023-04-05T19:09:22.664Z,98669.56
2023-04-05T19:11:51.298Z,98669.38
2023-04-05T19:14:20.725Z,98664.19
2023-04-05T19:16:49.628Z,98669.56
2023-04-05T19:19:19.648Z,98666.88
2023-04-05T19:21:48.308Z,98672.25
2023-04-05T19:24:21.624Z,98672.25
2023-04-05T19:26:51.093Z,98672.38
2023-04-05T19:29:20.494Z,98671.56
2023-04-05T19:31:49.323Z,98665.34
2023-04-05T19:34:18.824Z,98662.81
2023-04-05T19:36:47.582Z,98664.66
2023-04-05T19:44:15.322Z,98665.84
2023-04-05T19:46:44.074Z,98663.16
2023-04-05T19:49:14.487Z,98662.47
2023-04-05T19:51:43.894Z,98662.47
2023-04-05T19:54:15.100Z,98678.59
2023-04-05T19:56:45.859Z,98669.69
2023-04-05T19:59:30.801Z,98660.97
2023-04-05T20:02:00.591Z,98668.03
2023-04-05T20:04:29.617Z,98655.44
2023-04-05T20:06:59.099Z,98660.47
2023-04-05T20:09:29.633Z,98660.28
2023-04-05T20:14:31.040Z,98657.59
2023-04-05T20:17:00.100Z,98654.91
2023-04-05T20:19:31.835Z,98653.94
2023-04-05T20:24:30.763Z,98646.03
2023-04-05T20:27:01.347Z,98647.03
2023-04-05T20:29:32.491Z,98655.09
2023-04-05T20:32:02.182Z,98647.72
2023-04-05T20:34:33.105Z,98649.53
2023-04-05T20:39:31.213Z,98640.84
2023-04-05T20:42:01.169Z,98633.59
2023-04-05T20:44:29.860Z,98636.28
2023-04-05T20:46:58.571Z,98644.34
2023-04-05T20:49:28.167Z,98638.97
2023-04-05T20:51:57.717Z,98638.97
2023-04-05T20:54:26.781Z,98643.53
2023-04-05T20:56:55.575Z,98644.34
2023-04-05T20:59:26.482Z,98632.78
2023-04-05T21:01:55.991Z,98638.16
2023-04-05T21:04:26.541Z,98636.44
2023-04-05T21:06:56.932Z,98637.31
2023-04-05T21:09:25.675Z,98641.00
2023-04-05T21:11:54.459Z,98644.50
2023-04-05T21:14:24.737Z,98636.44
2023-04-05T21:16:53.529Z,98637.31
2023-04-05T21:19:22.277Z,98640.31
2023-04-05T21:21:51.096Z,98644.69
2023-04-05T21:24:19.827Z,98642.84
2023-04-05T21:26:48.669Z,98640.16
2023-04-05T21:29:17.409Z,98639.31
2023-04-05T21:31:47.680Z,98631.06
2023-04-05T21:34:16.920Z,98641.00
2023-04-05T21:36:45.779Z,98641.00
2023-04-05T21:39:14.615Z,98640.16
2023-04-05T21:41:43.657Z,98632.25
2023-04-05T21:44:12.356Z,98631.25
2023-04-05T21:46:41.301Z,98637.47
2023-04-05T21:49:11.775Z,98637.47
2023-04-05T21:51:41.041Z,98633.28
2023-04-05T21:54:09.868Z,98633.13
2023-04-05T21:56:38.970Z,98637.63
2023-04-05T21:59:08.132Z,98639.31
2023-04-05T22:01:37.027Z,98641.16
2023-04-05T22:04:05.968Z,98633.13
2023-04-05T22:06:36.228Z,98632.25
2023-04-05T22:09:06.166Z,98627.91
2023-04-05T22:11:35.905Z,98636.63
2023-04-05T22:14:05.027Z,98636.63
2023-04-05T22:16:34.257Z,98637.63
2023-04-05T22:19:03.080Z,98634.09
2023-04-05T22:21:32.100Z,98637.63
2023-04-05T22:24:02.266Z,98641.16
2023-04-05T22:26:32.680Z,98642.16
2023-04-05T22:29:02.427Z,98648.38
2023-04-05T22:31:31.282Z,98637.63
2023-04-05T22:34:00.070Z,98631.41
2023-04-05T22:36:29.256Z,98635.13
2023-04-05T22:38:58.243Z,98637.63
2023-04-05T22:41:28.568Z,98638.63
2023-04-05T22:43:57.861Z,98629.75
2023-04-05T22:46:26.915Z,98631.59
2023-04-05T22:48:56.107Z,98635.13
2023-04-05T22:51:24.917Z,98639.66
2023-04-05T22:53:53.729Z,98638.78
2023-04-05T22:56:24.180Z,98629.75
2023-04-05T22:58:54.606Z,98634.28
2023-04-05T23:01:23.384Z,98626.22
2023-04-05T23:03:52.570Z,98636.97
2023-04-05T23:06:21.262Z,98633.41
2023-04-05T23:08:50.013Z,98628.91
2023-04-05T23:11:18.957Z,98637.97
2023-04-05T23:13:47.595Z,98632.59
2023-04-05T23:16:18.172Z,98633.41
2023-04-05T23:18:49.125Z,98634.28
2023-04-05T23:21:18.481Z,98627.22
2023-04-05T23:23:47.514Z,98628.06
2023-04-05T23:26:16.454Z,98628.91
2023-04-05T23:28:45.327Z,98623.53
2023-04-05T23:31:14.683Z,98629.75
2023-04-05T23:33:45.142Z,98628.91
2023-04-05T23:36:15.443Z,98621.84
2023-04-05T23:38:44.309Z,98620.84
2023-04-05T23:41:13.956Z,98612.81
2023-04-05T23:43:42.967Z,98612.81
2023-04-05T23:46:11.992Z,98617.31
2023-04-05T23:48:41.459Z,98621.84
2023-04-05T23:51:12.009Z,98620.19
2023-04-05T23:53:41.141Z,98625.56
2023-04-05T23:56:10.582Z,98625.56
2023-04-05T23:58:42.349Z,98628.06
